createdAt,value
2019-04-26T00:02:46.340Z,29.00
2019-04-26T00:05:35.362Z,29.00
2019-04-26T00:08:15.827Z,29.00
2019-04-26T00:11:16.638Z,29.00
2019-04-26T00:14:20.999Z,29.30
2019-04-26T00:17:09.210Z,29.30
2019-04-26T00:19:51.686Z,29.10
2019-04-26T00:22:37.975Z,29.10
2019-04-26T00:25:18.690Z,29.10
2019-04-26T00:28:08.030Z,29.10
2019-04-26T00:30:49.007Z,29.10
2019-04-26T00:33:32.640Z,29.10
2019-04-26T00:36:14.935Z,29.20
2019-04-26T00:38:56.858Z,29.10
2019-04-26T00:41:43.325Z,29.10
2019-04-26T00:44:29.464Z,29.20
2019-04-26T00:47:14.116Z,29.10
2019-04-26T00:49:58.586Z,29.20
2019-04-26T00:52:38.724Z,29.20
2019-04-26T00:55:24.340Z,29.30
2019-04-26T00:58:08.356Z,29.30
2019-04-26T01:00:47.714Z,29.30
2019-04-26T01:03:31.115Z,29.40
2019-04-26T01:06:14.627Z,29.40
2019-04-26T01:08:56.451Z,29.40
2019-04-26T01:11:39.374Z,29.50
2019-04-26T01:14:21.982Z,29.50
2019-04-26T01:17:02.852Z,29.40
2019-04-26T01:19:47.699Z,29.50
2019-04-26T01:22:31.760Z,29.50
2019-04-26T01:25:12.166Z,29.50
2019-04-26T01:27:57.133Z,29.50
2019-04-26T01:30:41.296Z,29.80
2019-04-26T01:33:24.087Z,29.80
2019-04-26T01:36:13.277Z,29.80
2019-04-26T01:38:51.370Z,29.80
2019-04-26T01:41:38.067Z,29.80
2019-04-26T01:44:31.473Z,29.90
2019-04-26T01:47:13.404Z,29.90
2019-04-26T01:49:56.117Z,29.90
2019-04-26T01:52:37.777Z,29.90
2019-04-26T01:55:19.340Z,30.00
2019-04-26T01:57:59.966Z,30.30
2019-04-26T02:01:01.395Z,30.20
2019-04-26T02:03:41.632Z,30.20
2019-04-26T02:06:29.168Z,30.10
2019-04-26T02:09:07.585Z,30.20
2019-04-26T02:11:48.228Z,30.20
2019-04-26T02:14:28.955Z,30.30
2019-04-26T02:17:08.829Z,30.30
2019-04-26T02:19:54.528Z,30.30
2019-04-26T02:22:57.788Z,30.30
2019-04-26T02:25:41.717Z,30.60
2019-04-26T02:28:25.528Z,30.50
2019-04-26T02:31:07.999Z,30.50
2019-04-26T02:33:46.982Z,30.40
2019-04-26T02:36:47.897Z,30.40
2019-04-26T02:39:21.914Z,30.40
2019-04-26T02:42:08.266Z,30.40
2019-04-26T02:44:54.815Z,30.40
2019-04-26T02:47:54.318Z,30.40
2019-04-26T02:50:41.978Z,30.50
2019-04-26T02:53:43.289Z,30.50
2019-04-26T02:56:34.110Z,30.50
2019-04-26T02:59:45.268Z,30.60
2019-04-26T03:02:36.171Z,30.60
2019-04-26T03:05:14.810Z,30.60
2019-04-26T03:08:06.651Z,30.70
2019-04-26T03:10:58.152Z,30.70
2019-04-26T03:14:08.230Z,30.70
2019-04-26T03:17:04.711Z,30.80
2019-04-26T03:19:51.080Z,31.00
2019-04-26T03:23:06.042Z,30.90
2019-04-26T03:25:57.069Z,30.90
2019-04-26T03:29:01.063Z,31.00
2019-04-26T03:32:02.959Z,31.00
2019-04-26T03:34:58.931Z,31.00
2019-04-26T03:38:09.622Z,31.00
2019-04-26T03:41:05.451Z,31.00
2019-04-26T03:44:23.378Z,31.00
2019-04-26T03:47:06.834Z,31.10
2019-04-26T03:50:09.319Z,31.20
2019-04-26T03:53:18.199Z,31.20
2019-04-26T03:56:39.838Z,31.20
2019-04-26T03:59:57.423Z,31.20
2019-04-26T04:02:53.239Z,31.20
2019-04-26T04:05:45.593Z,31.30
2019-04-26T04:08:29.283Z,31.40
2019-04-26T04:11:12.633Z,31.60
2019-04-26T04:14:12.401Z,31.60
2019-04-26T04:17:33.694Z,31.60
2019-04-26T04:21:03.668Z,31.60
2019-04-26T04:24:04.670Z,31.90
2019-04-26T04:27:10.499Z,31.80
2019-04-26T04:30:19.729Z,31.80
2019-04-26T04:33:49.475Z,31.80
2019-04-26T04:36:31.138Z,31.80
2019-04-26T04:39:29.949Z,31.70
2019-04-26T04:42:32.824Z,31.70
2019-04-26T04:45:50.134Z,31.70
2019-04-26T04:48:52.817Z,31.80
2019-04-26T04:51:53.583Z,31.90
2019-04-26T04:54:44.720Z,31.90
2019-04-26T04:57:56.945Z,31.90
2019-04-26T05:01:37.633Z,32.10
2019-04-26T05:04:29.173Z,32.00
2019-04-26T05:07:51.494Z,31.80
2019-04-26T05:10:57.450Z,32.00
2019-04-26T05:14:06.296Z,32.10
2019-04-26T05:17:19.160Z,32.10
2019-04-26T05:20:42.169Z,32.40
2019-04-26T05:24:00.963Z,32.50
2019-04-26T05:27:40.774Z,32.50
2019-04-26T05:31:11.623Z,32.40
2019-04-26T05:34:15.429Z,32.40
2019-04-26T05:37:33.160Z,32.20
2019-04-26T05:40:48.627Z,32.10
2019-04-26T05:43:45.000Z,32.00
2019-04-26T05:47:09.250Z,32.10
2019-04-26T05:50:31.309Z,32.10
2019-04-26T05:54:15.759Z,32.20
2019-04-26T06:01:42.998Z,32.60
2019-04-26T06:05:27.052Z,32.60
2019-04-26T06:08:49.146Z,32.60
2019-04-26T06:11:39.626Z,32.60
2019-04-26T06:15:00.899Z,32.80
2019-04-26T06:21:46.244Z,32.80
2019-04-26T06:25:06.626Z,33.10
2019-04-26T06:28:08.309Z,33.10
2019-04-26T06:31:13.907Z,33.00
2019-04-26T06:34:24.765Z,32.90
2019-04-26T06:37:35.722Z,32.80
2019-04-26T06:40:46.079Z,32.80
2019-04-26T06:43:42.660Z,33.00
2019-04-26T06:46:49.428Z,33.10
2019-04-26T06:50:30.282Z,33.10
2019-04-26T06:53:29.696Z,33.10
2019-04-26T06:56:37.365Z,32.90
2019-04-26T06:59:43.075Z,32.90
2019-04-26T07:02:57.412Z,33.00
2019-04-26T07:05:54.211Z,33.10
2019-04-26T07:08:59.350Z,33.20
2019-04-26T07:12:28.943Z,33.10
2019-04-26T07:15:43.667Z,33.10
2019-04-26T07:22:35.128Z,33.20
2019-04-26T07:25:50.943Z,33.10
2019-04-26T07:29:11.268Z,33.10
2019-04-26T07:32:03.228Z,33.10
2019-04-26T07:35:32.638Z,33.10
2019-04-26T07:39:13.222Z,33.00
2019-04-26T07:42:24.484Z,33.10
2019-04-26T07:45:51.123Z,33.10
2019-04-26T07:49:05.985Z,33.30
2019-04-26T07:52:27.121Z,33.30
2019-04-26T07:55:33.738Z,33.40
2019-04-26T07:58:47.092Z,33.40
2019-04-26T08:01:59.289Z,33.50
2019-04-26T08:04:46.935Z,33.60
2019-04-26T08:07:40.035Z,33.70
2019-04-26T08:10:23.977Z,33.80
2019-04-26T08:13:13.087Z,33.80
2019-04-26T08:16:21.989Z,33.90
2019-04-26T08:19:06.996Z,34.00
2019-04-26T08:21:51.669Z,34.00
2019-04-26T08:24:35.095Z,34.00
2019-04-26T08:27:24.092Z,34.00
2019-04-26T08:30:10.109Z,34.00
2019-04-26T08:32:52.925Z,34.00
2019-04-26T08:35:34.694Z,34.20
2019-04-26T08:38:22.754Z,34.20
2019-04-26T08:41:04.988Z,34.30
2019-04-26T08:44:11.244Z,34.30
2019-04-26T08:47:13.707Z,34.30
2019-04-26T08:50:00.760Z,34.40
2019-04-26T08:52:43.057Z,34.40
2019-04-26T08:55:27.705Z,34.40
2019-04-26T08:58:08.738Z,34.30
2019-04-26T09:00:59.792Z,34.30
2019-04-26T09:03:44.971Z,34.20
2019-04-26T09:06:50.877Z,34.20
2019-04-26T09:09:32.511Z,34.10
2019-04-26T09:12:22.915Z,34.10
2019-04-26T09:15:00.301Z,34.10
2019-04-26T09:17:47.294Z,34.00
2019-04-26T09:20:29.883Z,34.10
2019-04-26T09:23:39.932Z,34.00
2019-04-26T09:26:20.656Z,34.10
2019-04-26T09:29:09.765Z,33.90
2019-04-26T09:31:59.832Z,33.80
2019-04-26T09:34:42.810Z,33.60
2019-04-26T09:37:22.123Z,33.50
2019-04-26T09:40:21.044Z,33.50
2019-04-26T09:43:15.006Z,33.40
2019-04-26T09:46:20.852Z,33.30
2019-04-26T09:49:17.272Z,33.20
2019-04-26T09:52:01.065Z,33.20
2019-04-26T09:54:40.287Z,33.10
2019-04-26T09:57:22.791Z,33.10
2019-04-26T10:00:02.018Z,33.10
2019-04-26T10:02:45.018Z,33.30
2019-04-26T10:05:27.338Z,33.20
2019-04-26T10:08:08.221Z,33.20
2019-04-26T10:10:51.859Z,33.10
2019-04-26T10:13:49.594Z,33.00
2019-04-26T10:16:59.182Z,32.90
2019-04-26T10:19:51.450Z,32.90
2019-04-26T10:22:35.918Z,33.20
2019-04-26T10:25:41.685Z,33.10
2019-04-26T10:28:24.745Z,33.00
2019-04-26T10:31:06.423Z,33.10
2019-04-26T10:34:02.731Z,33.10
2019-04-26T10:36:57.079Z,32.90
2019-04-26T10:39:42.719Z,32.90
2019-04-26T10:42:29.482Z,32.70
2019-04-26T10:45:16.368Z,32.70
2019-04-26T10:47:59.530Z,32.60
2019-04-26T10:50:42.361Z,32.60
2019-04-26T10:53:43.851Z,32.60
2019-04-26T10:56:49.751Z,32.50
2019-04-26T10:59:48.681Z,32.70
2019-04-26T11:02:33.272Z,32.60
2019-04-26T11:05:35.462Z,32.50
2019-04-26T11:08:19.381Z,32.40
2019-04-26T11:11:03.877Z,32.30
2019-04-26T11:13:46.305Z,32.30
2019-04-26T11:16:27.606Z,32.20
2019-04-26T11:19:13.990Z,32.20
2019-04-26T11:22:02.058Z,32.10
2019-04-26T11:24:46.347Z,32.20
2019-04-26T11:27:31.295Z,32.20
2019-04-26T11:30:20.869Z,32.10
2019-04-26T11:32:59.650Z,32.10
2019-04-26T11:35:44.898Z,32.10
2019-04-26T11:38:31.274Z,32.10
2019-04-26T11:41:15.948Z,32.00
2019-04-26T11:44:01.074Z,32.00
2019-04-26T11:46:44.825Z,31.90
2019-04-26T11:49:42.994Z,31.90
2019-04-26T11:52:45.005Z,31.90
2019-04-26T11:55:31.424Z,31.90
2019-04-26T11:58:30.592Z,31.80
2019-04-26T12:01:27.091Z,31.80
2019-04-26T12:04:36.972Z,31.80
2019-04-26T12:07:46.916Z,31.70
2019-04-26T12:10:31.772Z,32.20
2019-04-26T12:13:21.424Z,32.10
2019-04-26T12:16:09.772Z,32.00
2019-04-26T12:18:58.609Z,31.90
2019-04-26T12:21:44.355Z,31.90
2019-04-26T12:24:29.562Z,31.80
2019-04-26T12:27:13.572Z,31.70
2019-04-26T12:29:57.470Z,31.70
2019-04-26T12:33:05.142Z,31.70
2019-04-26T12:35:46.561Z,31.60
2019-04-26T12:38:33.428Z,31.60
2019-04-26T12:41:25.235Z,31.60
2019-04-26T12:44:10.828Z,31.60
2019-04-26T12:47:15.417Z,31.60
2019-04-26T12:50:02.499Z,31.60
2019-04-26T12:52:44.425Z,31.50
2019-04-26T12:55:53.667Z,31.50
2019-04-26T12:58:34.575Z,31.40
2019-04-26T13:01:17.304Z,31.50
2019-04-26T13:04:18.169Z,31.40
2019-04-26T13:07:23.429Z,31.40
2019-04-26T13:10:27.555Z,31.40
2019-04-26T13:13:30.442Z,31.70
2019-04-26T13:16:28.447Z,31.60
2019-04-26T13:19:16.043Z,31.50
2019-04-26T13:22:01.689Z,31.50
2019-04-26T13:24:50.680Z,31.40
2019-04-26T13:27:45.578Z,31.40
2019-04-26T13:30:32.946Z,31.60
2019-04-26T13:33:18.242Z,31.50
2019-04-26T13:36:07.464Z,31.50
2019-04-26T13:39:00.263Z,31.60
2019-04-26T13:42:04.457Z,31.50
2019-04-26T13:44:53.853Z,31.50
2019-04-26T13:48:06.351Z,31.40
2019-04-26T13:51:07.657Z,31.30
2019-04-26T13:54:01.481Z,31.30
2019-04-26T13:56:53.087Z,31.30
2019-04-26T13:59:45.313Z,31.30
2019-04-26T14:02:34.032Z,31.30
2019-04-26T14:05:38.386Z,31.40
2019-04-26T14:08:21.142Z,31.40
2019-04-26T14:11:04.148Z,31.30
2019-04-26T14:13:59.964Z,31.30
2019-04-26T14:16:55.829Z,31.30
2019-04-26T14:19:38.346Z,31.20
2019-04-26T14:22:33.037Z,31.20
2019-04-26T14:25:22.779Z,31.20
2019-04-26T14:28:10.382Z,31.40
2019-04-26T14:30:57.129Z,31.30
2019-04-26T14:33:45.050Z,31.30
2019-04-26T14:36:30.493Z,31.70
2019-04-26T14:39:19.681Z,31.50
2019-04-26T14:42:06.374Z,31.40
2019-04-26T14:44:51.333Z,31.30
2019-04-26T14:47:46.442Z,31.30
2019-04-26T14:50:16.662Z,31.20
2019-04-26T14:53:02.311Z,31.20
2019-04-26T14:55:51.345Z,31.10
2019-04-26T14:58:33.730Z,31.20
2019-04-26T15:01:32.293Z,31.20
2019-04-26T15:04:36.693Z,31.20
2019-04-26T15:07:22.175Z,31.10
2019-04-26T15:10:13.853Z,31.10
2019-04-26T15:13:11.445Z,31.10
2019-04-26T15:15:46.175Z,31.10
2019-04-26T15:18:25.441Z,31.00
2019-04-26T15:21:09.623Z,31.00
2019-04-26T15:24:00.382Z,31.30
2019-04-26T15:27:07.211Z,31.30
2019-04-26T15:29:52.480Z,31.20
2019-04-26T15:32:38.258Z,31.20
2019-04-26T15:35:34.219Z,31.10
2019-04-26T15:38:17.952Z,31.10
2019-04-26T15:41:16.968Z,31.50
2019-04-26T15:44:24.826Z,31.40
2019-04-26T15:47:14.565Z,31.30
2019-04-26T15:50:17.089Z,31.70
2019-04-26T15:53:06.594Z,31.50
2019-04-26T15:55:52.392Z,31.40
2019-04-26T15:58:45.881Z,31.20
2019-04-26T16:01:24.748Z,31.20
2019-04-26T16:04:07.686Z,31.20
2019-04-26T16:06:57.004Z,31.10
2019-04-26T16:09:37.763Z,31.10
2019-04-26T16:12:27.174Z,31.10
2019-04-26T16:15:14.722Z,31.00
2019-04-26T16:17:54.544Z,31.00
2019-04-26T16:20:44.365Z,31.00
2019-04-26T16:23:40.859Z,31.00
2019-04-26T16:26:20.338Z,31.00
2019-04-26T16:29:24.554Z,30.90
2019-04-26T16:32:28.749Z,30.90
2019-04-26T16:35:14.077Z,30.90
2019-04-26T16:38:06.597Z,30.90
2019-04-26T16:40:52.108Z,30.80
2019-04-26T16:43:37.705Z,30.70
2019-04-26T16:46:24.236Z,30.60
2019-04-26T16:49:11.584Z,30.70
2019-04-26T16:52:02.172Z,30.60
2019-04-26T16:54:43.789Z,30.60
2019-04-26T16:57:29.226Z,30.60
2019-04-26T17:00:11.073Z,30.50
2019-04-26T17:02:53.360Z,30.40
2019-04-26T17:05:47.663Z,30.70
2019-04-26T17:08:20.812Z,30.40
2019-04-26T17:11:05.440Z,30.20
2019-04-26T17:13:51.275Z,30.10
2019-04-26T17:16:29.715Z,30.00
2019-04-26T17:19:11.889Z,29.90
2019-04-26T17:22:05.191Z,29.80
2019-04-26T17:25:12.639Z,29.80
2019-04-26T17:27:58.707Z,29.80
2019-04-26T17:30:45.353Z,29.80
2019-04-26T17:33:30.338Z,29.80
2019-04-26T17:36:15.909Z,29.70
2019-04-26T17:38:57.265Z,29.70
2019-04-26T17:41:43.262Z,29.70
2019-04-26T17:44:28.292Z,29.70
2019-04-26T17:47:10.881Z,29.70
2019-04-26T17:49:57.478Z,29.60
2019-04-26T17:52:41.210Z,29.60
2019-04-26T17:55:20.877Z,29.70
2019-04-26T17:58:11.914Z,29.60
2019-04-26T18:00:56.547Z,29.60
2019-04-26T18:03:38.661Z,29.60
2019-04-26T18:06:29.417Z,29.60
2019-04-26T18:09:13.252Z,29.60
2019-04-26T18:12:00.036Z,29.60
2019-04-26T18:14:40.746Z,29.80
2019-04-26T18:17:44.622Z,29.80
2019-04-26T18:20:44.559Z,29.70
2019-04-26T18:23:30.286Z,30.10
2019-04-26T18:26:13.381Z,30.00
2019-04-26T18:28:56.479Z,29.90
2019-04-26T18:31:40.599Z,29.80
2019-04-26T18:34:25.496Z,29.70
2019-04-26T18:37:07.299Z,29.60
2019-04-26T18:39:53.449Z,29.60
2019-04-26T18:42:47.246Z,29.60
2019-04-26T18:45:30.167Z,29.60
2019-04-26T18:48:09.607Z,29.90
2019-04-26T18:50:52.239Z,29.80
2019-04-26T18:54:09.124Z,29.70
2019-04-26T18:56:53.343Z,29.60
2019-04-26T18:59:34.144Z,29.50
2019-04-26T19:02:18.619Z,29.50
2019-04-26T19:04:55.662Z,29.40
2019-04-26T19:07:37.834Z,29.50
2019-04-26T19:10:21.612Z,29.50
2019-04-26T19:13:14.123Z,29.60
2019-04-26T19:16:05.460Z,29.50
2019-04-26T19:18:59.982Z,29.50
2019-04-26T19:22:01.552Z,29.50
2019-04-26T19:24:45.339Z,29.40
2019-04-26T19:27:28.250Z,29.40
2019-04-26T19:30:10.737Z,29.40
2019-04-26T19:32:53.891Z,29.80
2019-04-26T19:35:39.374Z,29.70
2019-04-26T19:38:21.292Z,29.70
2019-04-26T19:41:02.687Z,30.00
2019-04-26T19:43:46.113Z,29.90
2019-04-26T19:46:35.872Z,29.70
2019-04-26T19:49:39.444Z,29.60
2019-04-26T19:52:39.641Z,29.50
2019-04-26T19:55:47.293Z,29.50
2019-04-26T19:58:32.071Z,29.40
2019-04-26T20:01:16.491Z,29.40
2019-04-26T20:03:59.918Z,29.30
2019-04-26T20:06:43.078Z,29.60
2019-04-26T20:09:26.568Z,29.60
2019-04-26T20:12:15.642Z,29.50
2019-04-26T20:15:02.178Z,29.50
2019-04-26T20:17:45.671Z,29.40
2019-04-26T20:20:34.521Z,29.40
2019-04-26T20:23:13.573Z,29.30
2019-04-26T20:26:00.945Z,29.70
2019-04-26T20:28:42.347Z,29.50
2019-04-26T20:31:49.070Z,29.40
2019-04-26T20:34:32.364Z,29.80
2019-04-26T20:37:16.157Z,29.60
2019-04-26T20:40:17.621Z,29.50
2019-04-26T20:42:42.911Z,29.40
2019-04-26T20:45:38.386Z,29.30
2019-04-26T20:48:10.320Z,29.40
2019-04-26T20:50:55.434Z,29.30
2019-04-26T20:53:41.023Z,29.30
2019-04-26T20:56:22.491Z,29.20
2019-04-26T20:59:02.912Z,29.30
2019-04-26T21:01:46.628Z,29.20
2019-04-26T21:04:36.844Z,29.20
2019-04-26T21:07:11.432Z,29.30
2019-04-26T21:09:53.716Z,29.20
2019-04-26T21:12:33.629Z,29.20
2019-04-26T21:15:20.093Z,29.10
2019-04-26T21:18:01.325Z,29.20
2019-04-26T21:20:44.942Z,29.10
2019-04-26T21:23:25.163Z,29.20
2019-04-26T21:26:28.135Z,29.20
2019-04-26T21:29:29.073Z,29.20
2019-04-26T21:32:33.227Z,29.10
2019-04-26T21:35:16.504Z,29.10
2019-04-26T21:38:09.454Z,29.10
2019-04-26T21:41:11.671Z,29.10
2019-04-26T21:43:55.427Z,29.10
2019-04-26T21:46:35.490Z,29.20
2019-04-26T21:49:20.322Z,29.20
2019-04-26T21:51:58.983Z,29.20
2019-04-26T21:54:40.757Z,29.60
2019-04-26T21:57:31.758Z,29.50
2019-04-26T22:00:30.843Z,29.40
2019-04-26T22:03:16.000Z,29.40
2019-04-26T22:05:58.604Z,29.40
2019-04-26T22:08:46.848Z,29.30
2019-04-26T22:11:28.531Z,29.30
2019-04-26T22:14:21.424Z,29.30
2019-04-26T22:17:25.419Z,29.30
2019-04-26T22:20:24.630Z,29.30
2019-04-26T22:23:28.179Z,29.20
2019-04-26T22:26:16.502Z,29.30
2019-04-26T22:29:01.277Z,29.20
2019-04-26T22:31:41.629Z,29.20
2019-04-26T22:34:24.460Z,29.30
2019-04-26T22:37:11.169Z,29.20
2019-04-26T22:39:55.954Z,29.20
2019-04-26T22:42:42.138Z,29.20
2019-04-26T22:45:50.599Z,29.30
2019-04-26T22:48:37.592Z,29.40
2019-04-26T22:51:18.142Z,29.30
2019-04-26T22:54:02.590Z,29.30
2019-04-26T22:56:49.074Z,29.30
2019-04-26T22:59:38.160Z,29.30
2019-04-26T23:02:23.611Z,29.30
2019-04-26T23:05:05.846Z,29.20
2019-04-26T23:07:49.528Z,29.20
2019-04-26T23:10:35.936Z,29.20
2019-04-26T23:13:41.318Z,29.20
2019-04-26T23:17:04.097Z,29.40
2019-04-26T23:19:54.210Z,29.20
2019-04-26T23:22:35.347Z,29.20
2019-04-26T23:25:21.647Z,29.10
2019-04-26T23:28:04.579Z,29.00
2019-04-26T23:30:46.364Z,28.90
2019-04-26T23:33:29.345Z,28.90
2019-04-26T23:36:13.622Z,29.10
2019-04-26T23:38:59.782Z,29.00
2019-04-26T23:41:45.308Z,29.00
2019-04-26T23:44:30.127Z,29.30
2019-04-26T23:47:20.525Z,29.30
2019-04-26T23:49:57.184Z,29.20
2019-04-26T23:52:40.521Z,29.20
2019-04-26T23:55:24.756Z,29.20
2019-04-26T23:58:10.798Z,29.10
